Time;durP1;ratioP1;P1;durP2;ratioP2;P2;SDS_P1;SDS_P2;PMS_P1;PMS_P2;Temp;Humidity;BMP_temperature;BMP_pressure;BME280_temperature;BME280_humidity;BME280_pressure;Samples;Min_cycle;Max_cycle;Signal;HPM_P1;HPM_P2
2023/05/01 00:00:04;;;;;;;4.22;1.52;;;9.50;99.90;;;;;;5145617;27;20457;-78
2023/05/01 00:02:30;;;;;;;3.75;1.50;;;9.50;99.90;;;;;;5093625;28;20143;-78
2023/05/01 00:04:56;;;;;;;4.50;1.58;;;9.50;99.90;;;;;;5111055;28;20063;-78
2023/05/01 00:07:23;;;;;;;4.47;1.50;;;9.50;99.90;;;;;;5107811;27;20047;-78
2023/05/01 00:09:50;;;;;;;2.97;1.58;;;9.40;99.90;;;;;;5097437;28;20044;-78
2023/05/01 00:12:16;;;;;;;3.20;1.40;;;9.40;99.90;;;;;;5080844;28;20118;-78
2023/05/01 00:14:41;;;;;;;4.10;1.50;;;9.40;99.90;;;;;;5111044;28;20122;-78
2023/05/01 00:17:07;;;;;;;3.88;1.83;;;9.40;99.90;;;;;;5093265;28;20519;-79
2023/05/01 00:19:32;;;;;;;3.33;1.70;;;9.40;99.90;;;;;;5103491;28;20079;-78
2023/05/01 00:21:58;;;;;;;2.95;1.75;;;9.30;99.90;;;;;;5106805;28;20047;-78
2023/05/01 00:24:23;;;;;;;4.38;1.75;;;9.30;99.90;;;;;;5090789;28;20039;-78
2023/05/01 00:26:49;;;;;;;3.20;1.55;;;9.30;99.90;;;;;;5072181;28;20486;-78
2023/05/01 00:29:15;;;;;;;3.13;1.33;;;9.30;99.90;;;;;;5092669;28;20100;-78
2023/05/01 00:31:41;;;;;;;3.53;1.42;;;9.20;99.90;;;;;;5099901;28;20043;-78
2023/05/01 00:34:07;;;;;;;3.60;1.45;;;9.20;99.90;;;;;;5091752;28;20059;-78
2023/05/01 00:36:33;;;;;;;4.63;1.80;;;9.20;99.90;;;;;;5098219;28;20103;-78
2023/05/01 00:38:58;;;;;;;3.50;1.60;;;9.20;99.90;;;;;;5104743;28;20044;-78
2023/05/01 00:41:24;;;;;;;3.83;1.75;;;9.10;99.90;;;;;;5102276;28;20043;-78
2023/05/01 00:43:50;;;;;;;6.88;1.55;;;9.20;99.90;;;;;;5071994;28;20076;-78
2023/05/01 00:46:16;;;;;;;4.28;1.65;;;9.10;99.90;;;;;;5087985;28;20036;-78
2023/05/01 00:48:43;;;;;;;3.22;1.70;;;9.10;99.90;;;;;;5071634;28;20039;-79
2023/05/01 00:51:08;;;;;;;2.72;1.50;;;9.10;99.90;;;;;;5082608;28;20046;-78
2023/05/01 00:53:34;;;;;;;3.58;1.58;;;9.10;99.90;;;;;;5099663;27;20027;-78
2023/05/01 00:56:00;;;;;;;3.47;1.42;;;9.00;99.90;;;;;;5126333;27;20142;-78
2023/05/01 00:58:26;;;;;;;4.18;1.73;;;9.00;99.90;;;;;;5090885;28;20044;-78
2023/05/01 01:00:52;;;;;;;2.83;1.27;;;9.00;99.90;;;;;;5073672;28;20143;-78
2023/05/01 01:03:18;;;;;;;4.07;1.75;;;8.90;99.90;;;;;;5092162;28;20085;-79
2023/05/01 01:05:52;;;;;;;5.25;1.55;;;9.00;99.90;;;;;;5071979;28;20130;-78
2023/05/01 01:08:25;;;;;;;5.15;1.90;;;8.90;99.90;;;;;;5074323;28;20032;-78
2023/05/01 01:10:56;;;;;;;4.63;1.77;;;8.90;99.90;;;;;;5089252;28;20116;-78
2023/05/01 01:13:41;;;;;;;5.05;1.38;;;8.90;99.90;;;;;;5076077;28;20606;-78
2023/05/01 01:16:28;;;;;;;4.10;1.77;;;8.80;99.90;;;;;;5071961;28;20493;-78
2023/05/01 01:19:11;;;;;;;4.50;1.95;;;8.80;99.90;;;;;;5072842;28;20060;-79
2023/05/01 01:21:41;;;;;;;2.85;1.42;;;8.80;99.90;;;;;;5074496;28;20047;-78
2023/05/01 01:24:46;;;;;;;4.22;1.60;;;8.80;99.90;;;;;;5107944;28;20065;-78
2023/05/01 01:27:51;;;;;;;4.05;1.40;;;8.80;99.90;;;;;;5094135;28;20406;-78
2023/05/01 01:30:51;;;;;;;5.00;1.88;;;8.70;99.90;;;;;;5079900;28;20534;-78
2023/05/01 01:33:44;;;;;;;5.47;2.58;;;8.70;99.90;;;;;;5118575;27;20500;-78
2023/05/01 01:36:17;;;;;;;4.18;1.50;;;8.70;99.90;;;;;;5096417;28;20646;-78
2023/05/01 01:38:51;;;;;;;4.15;1.73;;;8.60;99.90;;;;;;5099992;28;20054;-78
2023/05/01 01:41:23;;;;;;;4.28;1.75;;;8.60;99.90;;;;;;5087090;28;20077;-78
2023/05/01 01:43:58;;;;;;;5.97;1.73;;;8.50;99.90;;;;;;5099384;28;20051;-78
2023/05/01 01:46:25;;;;;;;5.47;1.85;;;8.60;99.90;;;;;;5070642;28;20036;-78
2023/05/01 01:48:52;;;;;;;4.85;1.95;;;8.50;99.90;;;;;;5107154;28;20035;-78
2023/05/01 01:51:21;;;;;;;2.78;1.40;;;8.40;99.90;;;;;;5072427;28;20107;-78
2023/05/01 01:53:51;;;;;;;3.88;1.48;;;8.40;99.90;;;;;;5088096;28;20436;-78
2023/05/01 01:56:18;;;;;;;5.38;1.67;;;8.40;99.90;;;;;;5076633;28;20474;-78
2023/05/01 01:58:46;;;;;;;3.08;1.50;;;8.30;99.90;;;;;;5071674;28;20101;-78
2023/05/01 02:01:14;;;;;;;4.88;1.30;;;8.30;99.90;;;;;;5090145;28;20082;-78
2023/05/01 02:03:41;;;;;;;2.95;1.30;;;8.30;99.90;;;;;;5108096;28;20397;-78
2023/05/01 02:06:08;;;;;;;4.95;2.00;;;8.20;99.90;;;;;;5093697;27;20857;-78
2023/05/01 02:08:36;;;;;;;2.53;1.17;;;8.20;99.90;;;;;;5086788;28;20505;-78
2023/05/01 02:11:03;;;;;;;5.35;1.58;;;8.20;99.90;;;;;;5102937;28;20043;-78
2023/05/01 02:13:32;;;;;;;3.88;1.60;;;8.10;99.90;;;;;;5104403;28;20145;-78
2023/05/01 02:15:59;;;;;;;6.10;1.75;;;8.10;99.90;;;;;;5099612;28;20043;-78
2023/05/01 02:18:28;;;;;;;4.63;1.38;;;8.10;99.90;;;;;;5090327;28;20035;-78
2023/05/01 02:20:57;;;;;;;3.70;1.48;;;8.10;99.90;;;;;;5110680;28;20489;-79
2023/05/01 02:23:25;;;;;;;3.97;1.55;;;8.10;99.90;;;;;;5070627;28;20401;-78
2023/05/01 02:25:53;;;;;;;2.95;1.48;;;8.10;99.90;;;;;;5087019;28;20055;-78
2023/05/01 02:28:22;;;;;;;3.75;1.67;;;8.10;99.90;;;;;;5092309;28;20043;-79
2023/05/01 02:30:48;;;;;;;3.15;1.17;;;8.00;99.90;;;;;;5095222;28;20035;-78
2023/05/01 02:33:13;;;;;;;5.18;1.40;;;8.00;99.90;;;;;;5106847;28;20039;-79
2023/05/01 02:35:43;;;;;;;2.55;1.20;;;8.00;99.90;;;;;;5137782;27;20044;-78
2023/05/01 02:38:11;;;;;;;2.90;1.50;;;8.00;99.90;;;;;;5090390;28;20040;-78
2023/05/01 02:40:38;;;;;;;4.03;1.60;;;7.90;99.90;;;;;;5126279;27;20036;-78
2023/05/01 02:43:08;;;;;;;2.95;1.20;;;7.90;99.90;;;;;;5108472;28;20031;-78
2023/05/01 02:45:37;;;;;;;5.28;1.60;;;7.80;99.90;;;;;;5093921;28;20431;-78
2023/05/01 02:48:05;;;;;;;3.35;1.25;;;7.80;99.90;;;;;;5111260;28;20480;-78
2023/05/01 02:50:31;;;;;;;4.18;1.83;;;7.80;99.90;;;;;;5092389;28;20036;-78
2023/05/01 02:52:59;;;;;;;3.30;1.25;;;7.80;99.90;;;;;;5088959;28;20440;-78
2023/05/01 02:55:25;;;;;;;4.13;1.85;;;7.70;99.90;;;;;;5093462;28;20035;-78
2023/05/01 02:57:51;;;;;;;3.55;1.40;;;7.70;99.90;;;;;;5082408;28;20463;-78
2023/05/01 03:00:17;;;;;;;3.85;1.45;;;7.70;99.90;;;;;;5090037;28;20073;-78
2023/05/01 03:02:43;;;;;;;3.65;1.33;;;7.70;99.90;;;;;;5081329;28;20345;-78
2023/05/01 03:05:09;;;;;;;3.72;1.38;;;7.70;99.90;;;;;;5120719;27;20031;-78
2023/05/01 03:07:35;;;;;;;5.28;2.10;;;7.60;99.90;;;;;;5073471;28;21025;-78
2023/05/01 03:10:03;;;;;;;3.65;1.70;;;7.60;99.90;;;;;;5090439;28;20042;-78
2023/05/01 03:12:29;;;;;;;3.83;1.60;;;7.60;99.90;;;;;;5080045;28;20035;-78
2023/05/01 03:14:55;;;;;;;4.95;1.40;;;7.50;99.90;;;;;;5094564;28;20092;-78
2023/05/01 03:17:21;;;;;;;4.78;1.45;;;7.50;99.90;;;;;;5079174;28;20055;-78
2023/05/01 03:19:47;;;;;;;4.45;1.55;;;7.50;99.90;;;;;;5108387;28;20649;-78
2023/05/01 03:22:13;;;;;;;2.97;1.30;;;7.50;99.90;;;;;;5109854;28;20075;-78
2023/05/01 03:24:39;;;;;;;5.65;1.85;;;7.50;99.90;;;;;;5098385;28;20394;-78
2023/05/01 03:27:06;;;;;;;4.05;1.67;;;7.50;99.90;;;;;;5113289;27;20046;-78
2023/05/01 03:29:33;;;;;;;6.95;1.65;;;7.50;99.90;;;;;;5077201;28;20503;-78
2023/05/01 03:31:59;;;;;;;3.15;1.65;;;7.50;99.90;;;;;;5095852;28;20032;-78
2023/05/01 03:34:25;;;;;;;4.00;1.40;;;7.40;99.90;;;;;;5087882;28;20386;-78
2023/05/01 03:36:51;;;;;;;3.80;1.23;;;7.40;99.90;;;;;;5072360;28;20032;-78
2023/05/01 03:39:16;;;;;;;5.97;1.75;;;7.40;99.90;;;;;;5100998;28;20055;-78
2023/05/01 03:41:43;;;;;;;4.20;1.55;;;7.40;99.90;;;;;;5123495;27;20044;-78
2023/05/01 03:44:09;;;;;;;4.65;2.03;;;7.40;99.90;;;;;;5087504;28;20051;-78
2023/05/01 03:46:34;;;;;;;3.45;1.40;;;7.30;99.90;;;;;;5130361;27;20036;-78
2023/05/01 03:49:00;;;;;;;6.85;1.83;;;7.30;99.90;;;;;;5093585;28;20044;-78
2023/05/01 03:51:26;;;;;;;4.38;1.60;;;7.40;99.90;;;;;;5099660;28;20036;-78
2023/05/01 03:53:51;;;;;;;7.20;1.90;;;7.30;99.90;;;;;;5089110;28;20044;-78
2023/05/01 03:56:17;;;;;;;3.90;1.73;;;7.40;99.90;;;;;;5099121;28;20039;-78
2023/05/01 03:58:43;;;;;;;4.95;1.88;;;7.40;99.90;;;;;;5106847;28;20040;-78
2023/05/01 04:01:08;;;;;;;4.88;2.13;;;7.40;99.90;;;;;;5105639;27;20415;-78
2023/05/01 04:03:34;;;;;;;3.92;1.58;;;7.30;99.90;;;;;;5102438;28;20498;-78
2023/05/01 04:06:00;;;;;;;4.47;2.03;;;7.30;99.90;;;;;;5108565;28;20050;-78
2023/05/01 04:08:26;;;;;;;5.82;1.60;;;7.30;99.90;;;;;;5109826;28;20092;-78
2023/05/01 04:10:51;;;;;;;4.55;1.48;;;7.30;99.90;;;;;;5143115;27;20400;-78
2023/05/01 04:13:17;;;;;;;4.55;1.52;;;7.30;99.90;;;;;;5125696;27;20047;-78
2023/05/01 04:15:46;;;;;;;4.15;1.95;;;7.40;99.90;;;;;;5091290;28;20059;-78
2023/05/01 04:18:11;;;;;;;5.40;1.90;;;7.30;99.90;;;;;;5131025;27;20128;-78
2023/05/01 04:20:39;;;;;;;4.38;1.70;;;7.30;99.90;;;;;;5137380;27;20079;-78
2023/05/01 04:23:04;;;;;;;3.92;1.67;;;7.40;99.90;;;;;;5107126;28;20110;-78
2023/05/01 04:25:30;;;;;;;3.58;1.63;;;7.40;99.90;;;;;;5109613;28;20158;-78
2023/05/01 04:27:56;;;;;;;3.30;1.45;;;7.40;99.90;;;;;;5117270;27;20081;-78
2023/05/01 04:30:21;;;;;;;5.63;1.90;;;7.40;99.90;;;;;;5104832;28;20051;-78
2023/05/01 04:32:47;;;;;;;6.20;1.90;;;7.40;99.90;;;;;;5130298;27;20024;-78
2023/05/01 04:35:13;;;;;;;2.85;1.27;;;7.40;99.90;;;;;;5072639;28;20040;-78
2023/05/01 04:37:38;;;;;;;3.55;1.83;;;7.40;99.90;;;;;;5089344;28;20226;-78
2023/05/01 04:40:04;;;;;;;6.32;2.33;;;7.40;99.90;;;;;;5071865;28;20090;-78
2023/05/01 04:42:31;;;;;;;6.13;1.90;;;7.40;99.90;;;;;;5094185;28;20071;-78
2023/05/01 04:44:57;;;;;;;3.20;1.58;;;7.40;99.90;;;;;;5107323;28;20039;-79
2023/05/01 04:47:22;;;;;;;4.25;2.15;;;7.50;99.90;;;;;;5099708;28;20050;-78
2023/05/01 04:49:48;;;;;;;5.30;2.00;;;7.50;99.90;;;;;;5125689;27;20036;-78
2023/05/01 04:52:14;;;;;;;5.15;2.08;;;7.50;99.90;;;;;;5141145;27;20439;-79
2023/05/01 04:54:39;;;;;;;5.75;2.42;;;7.50;99.90;;;;;;5090683;28;20080;-78
2023/05/01 04:57:05;;;;;;;4.07;1.92;;;7.50;99.90;;;;;;5101255;28;20075;-78
2023/05/01 04:59:30;;;;;;;3.70;1.67;;;7.50;99.90;;;;;;5092447;28;20513;-78
2023/05/01 05:01:56;;;;;;;6.95;2.28;;;7.50;99.90;;;;;;5105212;28;20544;-78
2023/05/01 05:04:22;;;;;;;5.57;2.00;;;7.50;99.90;;;;;;5136776;27;20061;-78
2023/05/01 05:06:48;;;;;;;5.60;2.50;;;7.60;99.90;;;;;;5103537;28;20268;-78
2023/05/01 05:09:13;;;;;;;5.80;2.60;;;7.60;99.90;;;;;;5122815;27;20138;-78
2023/05/01 05:11:40;;;;;;;5.70;2.50;;;7.70;99.90;;;;;;5103601;28;20070;-78
2023/05/01 05:14:05;;;;;;;7.88;2.58;;;7.80;99.90;;;;;;5081686;28;20059;-78
2023/05/01 05:16:31;;;;;;;6.13;2.10;;;7.80;99.90;;;;;;5114303;27;20520;-79
2023/05/01 05:18:57;;;;;;;8.13;2.60;;;7.80;99.90;;;;;;5097811;27;20509;-78
2023/05/01 05:21:23;;;;;;;4.40;2.10;;;7.90;99.90;;;;;;5126610;27;20050;-78
2023/05/01 05:23:48;;;;;;;6.80;2.60;;;8.00;99.90;;;;;;5140249;27;20044;-78
2023/05/01 05:26:14;;;;;;;6.78;2.63;;;8.00;99.90;;;;;;5087002;28;20070;-78
2023/05/01 05:28:40;;;;;;;6.68;2.53;;;8.10;99.90;;;;;;5074757;28;20073;-78
2023/05/01 05:31:05;;;;;;;6.13;2.53;;;8.20;99.90;;;;;;5105540;28;20039;-78
2023/05/01 05:33:31;;;;;;;6.57;2.83;;;8.20;99.90;;;;;;5095043;28;20071;-78
2023/05/01 05:35:58;;;;;;;7.22;2.28;;;8.30;99.90;;;;;;5107344;28;20069;-78
2023/05/01 05:38:23;;;;;;;5.53;2.38;;;8.40;99.90;;;;;;5089961;28;20035;-78
2023/05/01 05:40:49;;;;;;;4.97;2.53;;;8.50;99.90;;;;;;5091393;28;20058;-78
2023/05/01 05:43:15;;;;;;;6.40;2.70;;;8.50;99.90;;;;;;5083140;28;20085;-78
2023/05/01 05:45:40;;;;;;;6.90;3.00;;;8.50;99.90;;;;;;5105274;28;20516;-78
2023/05/01 05:48:06;;;;;;;9.27;2.53;;;8.60;99.90;;;;;;5131272;27;20032;-78
2023/05/01 05:50:31;;;;;;;6.78;2.28;;;8.60;99.90;;;;;;5126707;27;20043;-78
2023/05/01 05:52:57;;;;;;;7.68;2.65;;;8.60;99.90;;;;;;5073916;28;20032;-78
2023/05/01 05:55:23;;;;;;;4.78;2.53;;;8.70;99.90;;;;;;5105386;28;20036;-79
2023/05/01 05:57:48;;;;;;;7.50;2.45;;;8.70;99.90;;;;;;5105270;28;20502;-78
2023/05/01 06:00:14;;;;;;;5.75;2.35;;;8.70;99.90;;;;;;5087297;28;20184;-79
2023/05/01 06:02:40;;;;;;;4.32;1.88;;;8.80;99.90;;;;;;5106327;27;20040;-78
2023/05/01 06:05:06;;;;;;;3.90;1.92;;;8.80;99.90;;;;;;5081984;28;20045;-78
2023/05/01 06:07:32;;;;;;;5.32;2.25;;;8.80;99.90;;;;;;5099793;28;20044;-78
2023/05/01 06:10:04;;;;;;;6.93;2.15;;;8.90;99.90;;;;;;5104726;27;20047;-79
2023/05/01 06:12:30;;;;;;;5.90;2.67;;;9.00;99.90;;;;;;5086140;28;20485;-79
2023/05/01 06:14:56;;;;;;;7.90;2.75;;;9.00;99.90;;;;;;5091454;28;20104;-79
2023/05/01 06:17:23;;;;;;;8.13;2.33;;;9.00;99.90;;;;;;5101493;28;20446;-79
2023/05/01 06:19:51;;;;;;;8.40;3.25;;;9.10;99.90;;;;;;5095973;28;20052;-79
2023/05/01 06:22:17;;;;;;;7.25;3.00;;;9.10;99.90;;;;;;5103865;28;20501;-78
2023/05/01 06:24:43;;;;;;;6.10;2.70;;;9.20;99.90;;;;;;5078673;28;20588;-78
2023/05/01 06:27:09;;;;;;;4.05;2.05;;;9.50;99.90;;;;;;5090449;28;20047;-78
2023/05/01 06:29:35;;;;;;;5.78;2.20;;;9.90;99.90;;;;;;5104645;28;20043;-79
2023/05/01 06:32:01;;;;;;;5.60;2.30;;;10.20;99.90;;;;;;5076571;28;20043;-79
2023/05/01 06:34:27;;;;;;;6.82;3.03;;;10.30;99.90;;;;;;5091611;28;20032;-79
2023/05/01 06:36:52;;;;;;;6.55;2.88;;;10.30;99.90;;;;;;5076130;28;20123;-79
2023/05/01 06:39:18;;;;;;;6.28;2.67;;;10.40;99.90;;;;;;5081114;28;20036;-79
2023/05/01 06:41:47;;;;;;;6.43;2.78;;;10.40;99.90;;;;;;5127723;27;20119;-79
2023/05/01 06:44:13;;;;;;;6.18;3.15;;;10.40;99.90;;;;;;5077111;28;20043;-79
2023/05/01 06:46:39;;;;;;;6.63;2.60;;;10.50;99.90;;;;;;5097813;27;20088;-78
2023/05/01 06:49:05;;;;;;;6.43;2.25;;;10.50;99.90;;;;;;5128242;27;20049;-79
2023/05/01 06:51:31;;;;;;;7.25;3.13;;;10.50;99.90;;;;;;5106308;28;20039;-79
2023/05/01 06:53:57;;;;;;;5.43;2.35;;;10.50;99.90;;;;;;5104539;28;20032;-78
2023/05/01 06:56:22;;;;;;;4.18;2.50;;;10.50;99.90;;;;;;5092600;28;20494;-79
2023/05/01 06:58:48;;;;;;;6.80;2.42;;;10.60;99.90;;;;;;5100072;28;20046;-79
2023/05/01 07:01:13;;;;;;;5.72;2.13;;;10.60;99.90;;;;;;5106134;28;20513;-79
2023/05/01 07:03:39;;;;;;;5.68;2.35;;;10.60;99.90;;;;;;5089606;28;20151;-79
2023/05/01 07:06:05;;;;;;;5.47;2.50;;;10.60;99.90;;;;;;5114018;27;20168;-79
2023/05/01 07:08:31;;;;;;;5.85;2.50;;;10.60;99.90;;;;;;5113840;27;20050;-79
2023/05/01 07:10:57;;;;;;;6.63;2.25;;;10.70;99.90;;;;;;5107074;28;20124;-79
2023/05/01 07:13:23;;;;;;;4.90;2.33;;;10.70;99.90;;;;;;5078911;27;20046;-79
2023/05/01 07:15:49;;;;;;;5.93;1.88;;;10.70;99.90;;;;;;5126113;27;20036;-78
2023/05/01 07:18:15;;;;;;;5.88;2.47;;;10.80;99.90;;;;;;5095130;27;20039;-74
2023/05/01 07:20:41;;;;;;;4.88;2.08;;;10.80;99.90;;;;;;5103489;27;20047;-78
2023/05/01 07:23:08;;;;;;;4.78;2.35;;;10.90;99.90;;;;;;5097859;27;20512;-79
2023/05/01 07:25:36;;;;;;;4.82;2.20;;;10.90;99.90;;;;;;5099468;27;20118;-80
2023/05/01 07:28:03;;;;;;;5.20;2.22;;;10.90;99.90;;;;;;5097741;27;20404;-79
2023/05/01 07:30:29;;;;;;;5.50;2.55;;;10.90;99.90;;;;;;5088297;28;20028;-79
2023/05/01 07:32:56;;;;;;;5.95;1.98;;;10.90;99.90;;;;;;5113562;27;20039;-80
2023/05/01 07:35:22;;;;;;;4.47;1.85;;;10.90;99.90;;;;;;5105202;27;20504;-79
2023/05/01 07:37:50;;;;;;;4.97;2.28;;;11.00;99.90;;;;;;5097263;27;20485;-80
2023/05/01 07:40:16;;;;;;;5.50;2.17;;;11.00;99.90;;;;;;5075102;28;20119;-80
2023/05/01 07:42:42;;;;;;;5.45;2.38;;;11.00;99.90;;;;;;5097627;28;20489;-79
2023/05/01 07:45:08;;;;;;;5.30;2.13;;;11.00;99.90;;;;;;5128630;27;20118;-79
2023/05/01 07:47:34;;;;;;;4.80;2.35;;;11.10;99.90;;;;;;5092655;27;21104;-79
2023/05/01 07:49:59;;;;;;;4.72;1.95;;;11.10;99.90;;;;;;5102722;27;20135;-80
2023/05/01 07:52:25;;;;;;;6.13;1.88;;;11.20;99.90;;;;;;5090062;28;20046;-79
2023/05/01 07:54:51;;;;;;;4.47;2.03;;;11.20;99.90;;;;;;5131403;27;20036;-79
2023/05/01 07:57:17;;;;;;;6.07;2.40;;;11.20;99.90;;;;;;5098498;28;20468;-79
2023/05/01 07:59:43;;;;;;;3.58;1.83;;;11.20;99.90;;;;;;5093026;28;20041;-79
2023/05/01 08:02:08;;;;;;;4.38;1.98;;;11.30;99.90;;;;;;5109988;27;20036;-79
2023/05/01 08:04:34;;;;;;;4.60;2.35;;;11.30;99.90;;;;;;5122591;27;20120;-79
2023/05/01 08:07:00;;;;;;;6.47;2.10;;;11.30;99.90;;;;;;5087634;28;20048;-79
2023/05/01 08:09:25;;;;;;;4.55;2.20;;;11.40;99.90;;;;;;5093086;27;20386;-79
2023/05/01 08:11:51;;;;;;;6.10;2.22;;;11.30;99.90;;;;;;5123545;27;20495;-79
2023/05/01 08:14:17;;;;;;;3.83;1.75;;;11.40;99.90;;;;;;5093110;27;20074;-79
2023/05/01 08:16:43;;;;;;;5.03;1.90;;;11.40;99.90;;;;;;5080681;27;20338;-80
2023/05/01 08:19:08;;;;;;;5.60;1.90;;;11.40;99.90;;;;;;5091530;27;20063;-80
2023/05/01 08:21:34;;;;;;;4.38;1.98;;;11.50;99.90;;;;;;5123968;27;20562;-79
2023/05/01 08:24:00;;;;;;;3.50;1.58;;;11.60;99.90;;;;;;5119506;27;20393;-80
2023/05/01 08:26:25;;;;;;;3.92;1.95;;;11.60;99.90;;;;;;5076663;28;20029;-79
2023/05/01 08:28:53;;;;;;;4.50;1.65;;;11.60;99.90;;;;;;5135794;27;20055;-79
2023/05/01 08:31:19;;;;;;;6.57;1.77;;;11.70;99.90;;;;;;5125047;27;20040;-78
2023/05/01 08:33:45;;;;;;;4.25;1.50;;;11.70;99.90;;;;;;5098556;27;20050;-78
2023/05/01 08:36:11;;;;;;;4.18;1.45;;;11.80;99.90;;;;;;5134504;27;20467;-78
2023/05/01 08:38:37;;;;;;;2.83;1.58;;;11.80;99.90;;;;;;5128721;27;20035;-78
2023/05/01 08:41:03;;;;;;;6.57;1.70;;;11.80;99.90;;;;;;5078726;27;20043;-78
2023/05/01 08:43:30;;;;;;;4.32;1.58;;;11.90;99.90;;;;;;5127175;27;20036;-78
2023/05/01 08:45:59;;;;;;;4.05;1.98;;;11.90;99.90;;;;;;5097946;27;20043;-78
2023/05/01 08:48:26;;;;;;;4.20;1.73;;;12.00;99.90;;;;;;5103184;27;20097;-78
2023/05/01 08:50:55;;;;;;;5.15;1.23;;;12.10;99.90;;;;;;5099480;28;20048;-78
2023/05/01 08:53:21;;;;;;;2.85;1.55;;;12.10;99.90;;;;;;5093030;27;20056;-78
2023/05/01 08:55:49;;;;;;;2.72;1.45;;;12.20;99.90;;;;;;5130727;27;20040;-78
2023/05/01 08:58:17;;;;;;;2.30;1.33;;;12.20;99.90;;;;;;5073881;28;20580;-78
2023/05/01 09:00:43;;;;;;;3.63;1.67;;;12.20;99.90;;;;;;5079704;28;20116;-78
2023/05/01 09:03:12;;;;;;;3.67;1.73;;;12.30;99.90;;;;;;5080831;27;20651;-78
2023/05/01 09:05:38;;;;;;;3.60;1.40;;;12.30;99.90;;;;;;5091268;27;20529;-78
2023/05/01 09:08:04;;;;;;;4.47;1.77;;;12.40;99.90;;;;;;5073998;28;20068;-78
2023/05/01 09:10:31;;;;;;;3.63;1.50;;;12.40;99.90;;;;;;5095441;27;20279;-78
2023/05/01 09:13:00;;;;;;;4.97;1.50;;;12.50;99.90;;;;;;5091049;27;20409;-78
2023/05/01 09:15:27;;;;;;;4.45;1.67;;;12.50;99.90;;;;;;5109741;27;20067;-78
2023/05/01 09:17:55;;;;;;;4.07;1.60;;;12.60;99.90;;;;;;5101379;27;20042;-78
2023/05/01 09:20:21;;;;;;;2.45;1.50;;;12.60;99.90;;;;;;5079948;28;20063;-78
2023/05/01 09:22:48;;;;;;;4.13;2.08;;;12.60;99.90;;;;;;5081628;28;20433;-78
2023/05/01 09:25:13;;;;;;;2.58;1.33;;;12.70;99.90;;;;;;5099769;28;20078;-78
2023/05/01 09:27:39;;;;;;;4.65;1.13;;;12.70;99.90;;;;;;5074528;28;20111;-78
2023/05/01 09:30:06;;;;;;;2.67;1.13;;;12.70;99.90;;;;;;5099240;27;20044;-78
2023/05/01 09:32:32;;;;;;;3.55;1.20;;;12.70;99.10;;;;;;5094013;28;20042;-78
2023/05/01 09:35:10;;;;;;;2.78;1.30;;;12.70;98.90;;;;;;5095040;28;20041;-78
2023/05/01 09:37:36;;;;;;;2.40;1.33;;;12.70;97.50;;;;;;5082519;28;20052;-78
2023/05/01 09:40:09;;;;;;;5.45;1.13;;;12.80;98.00;;;;;;5097192;28;20052;-78
2023/05/01 09:42:56;;;;;;;4.40;1.33;;;12.90;97.80;;;;;;5092446;28;20453;-78
2023/05/01 09:45:22;;;;;;;2.75;1.15;;;12.90;98.00;;;;;;5085621;28;20728;-79
2023/05/01 09:47:48;;;;;;;2.28;0.93;;;12.90;98.30;;;;;;5095786;28;20036;-78
2023/05/01 09:50:33;;;;;;;3.22;1.33;;;12.90;98.40;;;;;;5094434;28;20085;-78
2023/05/01 09:53:05;;;;;;;3.08;1.08;;;12.90;97.70;;;;;;5092734;28;20405;-78
2023/05/01 09:55:31;;;;;;;3.60;1.17;;;13.10;98.20;;;;;;5100801;28;20536;-78
2023/05/01 09:58:00;;;;;;;2.17;1.27;;;13.10;98.40;;;;;;5093828;28;20043;-79
2023/05/01 10:00:26;;;;;;;3.25;1.25;;;13.20;98.00;;;;;;5095919;28;20054;-78
2023/05/01 10:02:52;;;;;;;2.33;1.15;;;13.20;98.00;;;;;;5094715;28;20037;-79
2023/05/01 10:05:18;;;;;;;2.30;1.10;;;13.30;98.00;;;;;;5097551;28;20035;-79
2023/05/01 10:08:04;;;;;;;4.93;1.40;;;13.30;97.80;;;;;;5086602;28;20051;-79
2023/05/01 10:10:30;;;;;;;;;;;13.40;97.70;;;;;;5092258;28;20047;-79
2023/05/01 10:13:11;;;;;;;6.15;1.60;;;13.40;97.20;;;;;;5127412;27;20382;-79
2023/05/01 10:15:36;;;;;;;1.92;1.08;;;13.50;98.50;;;;;;5088606;28;20040;-79
2023/05/01 10:18:03;;;;;;;1.73;0.93;;;13.70;98.10;;;;;;5128749;27;20495;-79
2023/05/01 10:20:31;;;;;;;1.55;0.90;;;13.70;97.80;;;;;;5097277;28;20147;-79
2023/05/01 10:22:58;;;;;;;4.57;1.10;;;13.80;97.80;;;;;;5092938;28;20392;-80
2023/05/01 10:25:26;;;;;;;2.35;1.00;;;13.80;98.00;;;;;;5097662;28;20047;-79
2023/05/01 10:27:52;;;;;;;5.10;1.17;;;13.90;97.60;;;;;;5093326;28;20103;-79
2023/05/01 10:30:19;;;;;;;2.50;0.80;;;14.00;97.60;;;;;;5096024;28;20385;-79
2023/05/01 10:32:46;;;;;;;1.48;0.60;;;14.10;97.40;;;;;;5128279;27;20067;-79
2023/05/01 10:35:20;;;;;;;4.32;0.95;;;14.10;97.60;;;;;;5101323;28;20140;-79
2023/05/01 10:37:47;;;;;;;1.23;0.68;;;14.20;97.20;;;;;;5089760;28;20035;-79
2023/05/01 10:40:38;;;;;;;4.30;0.98;;;14.20;97.20;;;;;;5129309;27;20509;-79
2023/05/01 10:43:29;;;;;;;2.03;0.52;;;14.10;95.40;;;;;;5110975;27;20068;-78
2023/05/01 10:46:25;;;;;;;2.15;0.80;;;14.10;95.60;;;;;;5081424;27;20109;-79
2023/05/01 10:48:53;;;;;;;;;;;14.10;95.90;;;;;;5095304;27;20485;-78
2023/05/01 10:51:26;;;;;;;1.67;0.50;;;14.10;94.30;;;;;;5129196;27;19923;-79
2023/05/01 10:54:10;;;;;;;2.13;0.57;;;14.00;96.90;;;;;;5101994;27;20393;-79
2023/05/01 10:56:42;;;;;;;2.00;0.70;;;14.20;97.00;;;;;;5097706;27;20047;-79
2023/05/01 10:59:08;;;;;;;1.73;0.80;;;14.40;97.10;;;;;;5082317;28;20071;-79
2023/05/01 11:01:41;;;;;;;3.90;0.85;;;14.50;96.90;;;;;;5076130;28;20071;-79
2023/05/01 11:04:26;;;;;;;1.90;0.75;;;14.50;96.20;;;;;;5081348;28;20035;-79
2023/05/01 11:07:04;;;;;;;2.35;0.75;;;14.60;93.30;;;;;;5090817;28;20044;-79
2023/05/01 11:09:41;;;;;;;3.22;1.15;;;14.60;94.70;;;;;;5095062;28;20042;-79
2023/05/01 11:12:14;;;;;;;2.50;0.88;;;14.60;94.90;;;;;;5119056;27;20055;-79
2023/05/01 11:14:52;;;;;;;4.45;0.90;;;14.60;95.40;;;;;;5097629;28;20161;-79
2023/05/01 11:17:40;;;;;;;2.50;0.80;;;14.60;95.10;;;;;;5126098;27;20036;-79
2023/05/01 11:20:12;;;;;;;2.13;0.73;;;14.70;95.50;;;;;;5073407;27;20066;-79
2023/05/01 11:22:44;;;;;;;2.50;0.98;;;14.80;95.70;;;;;;5092032;27;20121;-79
2023/05/01 11:25:21;;;;;;;2.65;0.85;;;14.80;95.30;;;;;;5088774;28;20040;-79
2023/05/01 11:27:52;;;;;;;2.65;1.00;;;14.80;94.60;;;;;;5088817;27;20420;-79
2023/05/01 11:30:18;;;;;;;1.55;0.77;;;14.80;95.00;;;;;;5079221;28;20035;-79
2023/05/01 11:32:45;;;;;;;2.85;1.00;;;14.90;94.60;;;;;;5076200;27;20036;-79
2023/05/01 11:35:19;;;;;;;2.03;1.10;;;14.90;94.40;;;;;;5073955;27;20035;-78
2023/05/01 11:37:46;;;;;;;2.72;0.90;;;14.90;94.40;;;;;;5115867;27;20039;-78
2023/05/01 11:40:21;;;;;;;4.68;1.15;;;14.90;95.20;;;;;;5089246;27;20519;-78
2023/05/01 11:42:47;;;;;;;;;;;14.90;94.50;;;;;;5092786;27;20040;-79
2023/05/01 11:45:13;;;;;;;2.17;0.77;;;15.00;91.00;;;;;;5075446;28;19919;-79
2023/05/01 11:47:39;;;;;;;4.53;1.20;;;15.00;94.50;;;;;;5095154;27;20043;-79
2023/05/01 11:50:07;;;;;;;2.28;1.13;;;15.00;94.30;;;;;;5071740;28;20073;-78
2023/05/01 11:52:48;;;;;;;2.00;0.80;;;15.10;93.10;;;;;;5076246;28;20385;-81
2023/05/01 11:55:15;;;;;;;2.00;0.80;;;15.20;91.80;;;;;;5077033;28;20038;-79
2023/05/01 11:57:52;;;;;;;2.65;1.10;;;15.10;93.40;;;;;;5097143;27;20404;-79
2023/05/01 12:00:38;;;;;;;2.78;1.05;;;15.30;91.80;;;;;;5090985;28;20040;-79
2023/05/01 12:03:12;;;;;;;4.65;0.95;;;15.40;91.40;;;;;;5093790;28;20069;-79
2023/05/01 12:05:41;;;;;;;2.53;1.20;;;15.50;92.80;;;;;;5093436;28;20032;-79
2023/05/01 12:08:12;;;;;;;2.85;1.08;;;15.50;93.40;;;;;;5110020;28;20086;-79
2023/05/01 12:10:40;;;;;;;2.42;1.02;;;15.60;93.20;;;;;;5109678;28;20039;-79
2023/05/01 12:13:07;;;;;;;1.88;1.00;;;15.60;93.50;;;;;;5098892;27;20547;-79
2023/05/01 12:15:37;;;;;;;3.10;0.93;;;15.80;93.30;;;;;;5110248;28;20072;-79
2023/05/01 12:18:06;;;;;;;3.38;1.05;;;15.90;92.50;;;;;;5092897;28;20127;-79
2023/05/01 12:20:43;;;;;;;2.53;0.80;;;15.90;92.10;;;;;;5109825;28;20398;-79
2023/05/01 12:23:14;;;;;;;2.75;0.90;;;15.90;91.30;;;;;;5110301;28;20069;-79
2023/05/01 12:25:41;;;;;;;3.28;0.70;;;15.90;91.40;;;;;;5111961;28;20122;-79
2023/05/01 12:28:17;;;;;;;2.35;0.70;;;15.90;90.50;;;;;;5093559;28;20039;-80
2023/05/01 12:30:45;;;;;;;3.17;0.85;;;15.90;85.60;;;;;;5097477;28;20044;-79
2023/05/01 12:33:14;;;;;;;3.28;0.80;;;16.00;89.70;;;;;;5090439;28;20394;-80
2023/05/01 12:35:41;;;;;;;1.40;0.73;;;16.00;89.80;;;;;;5102576;27;20516;-79
2023/05/01 12:38:25;;;;;;;4.68;0.90;;;15.90;89.50;;;;;;5112655;28;20039;-79
2023/05/01 12:40:56;;;;;;;2.67;0.75;;;15.90;83.70;;;;;;5112392;28;20036;-79
2023/05/01 12:43:32;;;;;;;3.00;1.02;;;15.90;89.60;;;;;;5112420;28;20047;-79
2023/05/01 12:45:57;;;;;;;;;;;15.90;86.30;;;;;;5113510;28;20050;-79
2023/05/01 12:48:23;;;;;;;;;;;15.90;71.60;;;;;;5112610;28;20292;-79
2023/05/01 12:50:55;;;;;;;2.80;0.90;;;16.00;72.10;;;;;;5094522;28;19920;-79
2023/05/01 12:53:23;;;;;;;1.10;0.50;;;15.90;90.40;;;;;;5091742;28;20047;-79
2023/05/01 12:55:58;;;;;;;2.28;0.90;;;16.00;90.70;;;;;;5095784;27;20580;-79
2023/05/01 12:58:36;;;;;;;1.90;0.80;;;16.00;85.90;;;;;;5106433;27;20522;-80